JON232 EGLC-EGBO
Flight info
| Callsign | JON232 |
|---|---|
| Flight time | 0h 46m |
| Altitude | 8000 |
| Route | BPK L10 HON |
| Aircraft | C208/L-SDFGR/C |
Departure
| Time | 2026-04-22 20:27 |
|---|---|
| Airport | London City Airport (EGLC) |
Arrival
| Time | 2026-04-22 21:13 |
|---|---|
| Airport | Wolverhampton Halfpenny Green Airport (EGBO) |
| Time | Latitude | Longitude | Altitude | Speed | Heading |
|---|---|---|---|---|---|
| 2026-04-22 20:16 | 51.50452 | 0.04498 | 24 ft | 0 kts | 316° |
| 2026-04-22 20:24 | 51.50501 | 0.04450 | 25 ft | 12 kts | 345° |
| 2026-04-22 20:24 | 51.50555 | 0.04455 | 24 ft | 4 kts | 45° |
| 2026-04-22 20:24 | 51.50557 | 0.04492 | 24 ft | 0 kts | 94° |
| 2026-04-22 20:25 | 51.50551 | 0.04685 | 24 ft | 41 kts | 93° |
| 2026-04-22 20:25 | 51.50528 | 0.05362 | 24 ft | 77 kts | 92° |
| 2026-04-22 20:25 | 51.50487 | 0.06307 | 99 ft | 88 kts | 93° |
| 2026-04-22 20:26 | 51.50396 | 0.07267 | 266 ft | 89 kts | 97° |
| 2026-04-22 20:26 | 51.50229 | 0.08316 | 301 ft | 101 kts | 102° |
| 2026-04-22 20:26 | 51.50012 | 0.09378 | 454 ft | 100 kts | 104° |
| 2026-04-22 20:26 | 51.49830 | 0.10442 | 601 ft | 97 kts | 85° |
| 2026-04-22 20:27 | 51.50248 | 0.11187 | 734 ft | 102 kts | 15° |
| 2026-04-22 20:27 | 51.50980 | 0.11060 | 923 ft | 112 kts | 342° |
| 2026-04-22 20:27 | 51.51676 | 0.10433 | 1134 ft | 117 kts | 338° |
| 2026-04-22 20:27 | 51.52405 | 0.09939 | 1339 ft | 112 kts | 358° |
| 2026-04-22 20:28 | 51.53142 | 0.09550 | 1543 ft | 114 kts | 352° |
| 2026-04-22 20:28 | 51.53886 | 0.09090 | 1760 ft | 116 kts | 352° |
| 2026-04-22 20:28 | 51.54640 | 0.08600 | 1958 ft | 118 kts | 352° |
| 2026-04-22 20:28 | 51.55413 | 0.08094 | 2170 ft | 121 kts | 351° |
| 2026-04-22 20:29 | 51.56199 | 0.07571 | 2374 ft | 123 kts | 350° |
| 2026-04-22 20:29 | 51.56996 | 0.07035 | 2579 ft | 125 kts | 350° |
| 2026-04-22 20:29 | 51.57807 | 0.06491 | 2775 ft | 127 kts | 349° |
| 2026-04-22 20:29 | 51.58598 | 0.05790 | 2975 ft | 132 kts | 335° |
| 2026-04-22 20:30 | 51.59368 | 0.05002 | 3176 ft | 130 kts | 338° |
| 2026-04-22 20:30 | 51.60143 | 0.04230 | 3382 ft | 130 kts | 337° |
| 2026-04-22 20:30 | 51.60915 | 0.03459 | 3587 ft | 131 kts | 336° |
| 2026-04-22 20:30 | 51.61689 | 0.02684 | 3787 ft | 131 kts | 335° |
| 2026-04-22 20:31 | 51.62462 | 0.01910 | 3983 ft | 130 kts | 335° |
| 2026-04-22 20:31 | 51.63229 | 0.01144 | 4184 ft | 130 kts | 334° |
| 2026-04-22 20:31 | 51.63986 | 0.00387 | 4382 ft | 130 kts | 334° |
| 2026-04-22 20:31 | 51.64748 | -0.00379 | 4620 ft | 129 kts | 334° |
| 2026-04-22 20:32 | 51.65505 | -0.01135 | 4825 ft | 127 kts | 333° |
| 2026-04-22 20:32 | 51.66255 | -0.01885 | 5032 ft | 127 kts | 333° |
| 2026-04-22 20:32 | 51.67003 | -0.02637 | 5237 ft | 126 kts | 333° |
| 2026-04-22 20:32 | 51.67748 | -0.03383 | 5436 ft | 126 kts | 332° |
| 2026-04-22 20:33 | 51.68493 | -0.04129 | 5623 ft | 126 kts | 332° |
| 2026-04-22 20:33 | 51.69242 | -0.04880 | 5844 ft | 130 kts | 332° |
| 2026-04-22 20:33 | 51.70039 | -0.05666 | 6079 ft | 138 kts | 332° |
| 2026-04-22 20:33 | 51.70858 | -0.06486 | 6288 ft | 139 kts | 331° |
| 2026-04-22 20:34 | 51.71686 | -0.07320 | 6507 ft | 141 kts | 331° |
| 2026-04-22 20:34 | 51.72520 | -0.08161 | 6722 ft | 142 kts | 331° |
| 2026-04-22 20:34 | 51.73357 | -0.09002 | 6930 ft | 144 kts | 330° |
| 2026-04-22 20:34 | 51.74223 | -0.09871 | 7079 ft | 149 kts | 330° |
| 2026-04-22 20:35 | 51.75087 | -0.10849 | 7200 ft | 156 kts | 314° |
| 2026-04-22 20:35 | 51.75706 | -0.12294 | 7335 ft | 158 kts | 303° |
| 2026-04-22 20:35 | 51.76347 | -0.13762 | 7469 ft | 161 kts | 306° |
| 2026-04-22 20:35 | 51.76994 | -0.15240 | 7597 ft | 161 kts | 305° |
| 2026-04-22 20:36 | 51.77624 | -0.16697 | 7717 ft | 156 kts | 304° |
| 2026-04-22 20:36 | 51.78241 | -0.18125 | 7833 ft | 154 kts | 305° |
| 2026-04-22 20:36 | 51.78849 | -0.19528 | 7975 ft | 152 kts | 305° |
| 2026-04-22 20:36 | 51.79456 | -0.20928 | 8087 ft | 152 kts | 304° |
| 2026-04-22 20:37 | 51.80076 | -0.22355 | 8099 ft | 158 kts | 305° |
| 2026-04-22 20:37 | 51.80721 | -0.23836 | 8107 ft | 163 kts | 305° |
| 2026-04-22 20:37 | 51.81377 | -0.25348 | 8008 ft | 165 kts | 304° |
| 2026-04-22 20:37 | 51.82040 | -0.26880 | 8011 ft | 167 kts | 304° |
| 2026-04-22 20:38 | 51.82709 | -0.28424 | 8009 ft | 168 kts | 304° |
| 2026-04-22 20:38 | 51.83374 | -0.29960 | 8009 ft | 169 kts | 304° |
| 2026-04-22 20:38 | 51.84048 | -0.31520 | 8009 ft | 169 kts | 304° |
| 2026-04-22 20:38 | 51.84721 | -0.33077 | 8007 ft | 170 kts | 304° |
| 2026-04-22 20:39 | 51.85398 | -0.34648 | 8008 ft | 170 kts | 304° |
| 2026-04-22 20:39 | 51.86075 | -0.36215 | 8009 ft | 170 kts | 304° |
| 2026-04-22 20:39 | 51.86753 | -0.37786 | 8009 ft | 170 kts | 304° |
| 2026-04-22 20:39 | 51.87433 | -0.39362 | 8009 ft | 170 kts | 304° |
| 2026-04-22 20:40 | 51.88111 | -0.40935 | 8007 ft | 171 kts | 304° |
| 2026-04-22 20:40 | 51.88789 | -0.42508 | 8007 ft | 171 kts | 304° |
| 2026-04-22 20:40 | 51.89468 | -0.44087 | 8008 ft | 171 kts | 304° |
| 2026-04-22 20:40 | 51.90146 | -0.45664 | 8007 ft | 171 kts | 304° |
| 2026-04-22 20:41 | 51.90825 | -0.47242 | 8007 ft | 171 kts | 304° |
| 2026-04-22 20:41 | 51.91503 | -0.48823 | 8007 ft | 171 kts | 304° |
| 2026-04-22 20:41 | 51.92175 | -0.50387 | 8006 ft | 171 kts | 304° |
| 2026-04-22 20:41 | 51.92853 | -0.51966 | 8006 ft | 170 kts | 304° |
| 2026-04-22 20:42 | 51.93529 | -0.53545 | 8006 ft | 171 kts | 304° |
| 2026-04-22 20:42 | 51.94207 | -0.55124 | 8005 ft | 170 kts | 304° |
| 2026-04-22 20:42 | 51.94883 | -0.56703 | 8005 ft | 170 kts | 304° |
| 2026-04-22 20:42 | 51.95559 | -0.58284 | 8005 ft | 171 kts | 304° |
| 2026-04-22 20:43 | 51.96235 | -0.59864 | 8000 ft | 171 kts | 304° |
| 2026-04-22 20:43 | 51.96913 | -0.61449 | 8001 ft | 171 kts | 304° |
| 2026-04-22 20:43 | 51.97590 | -0.63036 | 8000 ft | 171 kts | 304° |
| 2026-04-22 20:43 | 51.98270 | -0.64629 | 8000 ft | 172 kts | 304° |
| 2026-04-22 20:44 | 51.98951 | -0.66224 | 8003 ft | 172 kts | 304° |
| 2026-04-22 20:44 | 51.99632 | -0.67819 | 8002 ft | 172 kts | 304° |
| 2026-04-22 20:44 | 52.00311 | -0.69415 | 8005 ft | 172 kts | 304° |
| 2026-04-22 20:44 | 52.00992 | -0.71015 | 8005 ft | 172 kts | 304° |
| 2026-04-22 20:45 | 52.01670 | -0.72606 | 8004 ft | 172 kts | 304° |
| 2026-04-22 20:45 | 52.02349 | -0.74205 | 8003 ft | 172 kts | 304° |
| 2026-04-22 20:45 | 52.03031 | -0.75809 | 8002 ft | 172 kts | 304° |
| 2026-04-22 20:45 | 52.03712 | -0.77411 | 8001 ft | 172 kts | 304° |
| 2026-04-22 20:46 | 52.05061 | -0.80591 | 7993 ft | 172 kts | 304° |
| 2026-04-22 20:46 | 52.05739 | -0.82189 | 7993 ft | 172 kts | 304° |
| 2026-04-22 20:46 | 52.06415 | -0.83787 | 7992 ft | 171 kts | 304° |
| 2026-04-22 20:47 | 52.07091 | -0.85383 | 7992 ft | 172 kts | 304° |
| 2026-04-22 20:47 | 52.07771 | -0.86988 | 7991 ft | 172 kts | 304° |
| 2026-04-22 20:47 | 52.08448 | -0.88589 | 7991 ft | 172 kts | 304° |
| 2026-04-22 20:47 | 52.09124 | -0.90189 | 7996 ft | 172 kts | 304° |
| 2026-04-22 20:48 | 52.09800 | -0.91788 | 7997 ft | 172 kts | 303° |
| 2026-04-22 20:48 | 52.10476 | -0.93390 | 7998 ft | 172 kts | 304° |
| 2026-04-22 20:48 | 52.11152 | -0.94993 | 8023 ft | 172 kts | 304° |
| 2026-04-22 20:48 | 52.11819 | -0.96575 | 8027 ft | 172 kts | 304° |
| 2026-04-22 20:49 | 52.12492 | -0.98173 | 8028 ft | 172 kts | 303° |
| 2026-04-22 20:49 | 52.13171 | -0.99782 | 8041 ft | 172 kts | 303° |
| 2026-04-22 20:49 | 52.13845 | -1.01386 | 8044 ft | 172 kts | 303° |
| 2026-04-22 20:49 | 52.14521 | -1.02992 | 8047 ft | 172 kts | 303° |
| 2026-04-22 20:50 | 52.15196 | -1.04598 | 8047 ft | 172 kts | 303° |
| 2026-04-22 20:50 | 52.15870 | -1.06205 | 8051 ft | 172 kts | 303° |
| 2026-04-22 20:50 | 52.16544 | -1.07809 | 8053 ft | 172 kts | 303° |
| 2026-04-22 20:50 | 52.17218 | -1.09416 | 8055 ft | 172 kts | 303° |
| 2026-04-22 20:51 | 52.17892 | -1.11022 | 8061 ft | 172 kts | 303° |
| 2026-04-22 20:51 | 52.18477 | -1.12711 | 8062 ft | 171 kts | 295° |
| 2026-04-22 20:51 | 52.19026 | -1.14432 | 8066 ft | 171 kts | 296° |
| 2026-04-22 20:51 | 52.19582 | -1.16145 | 8070 ft | 171 kts | 296° |
| 2026-04-22 20:52 | 52.20140 | -1.17860 | 8071 ft | 171 kts | 296° |
| 2026-04-22 20:52 | 52.20696 | -1.19579 | 8073 ft | 171 kts | 296° |
| 2026-04-22 20:52 | 52.21252 | -1.21296 | 8077 ft | 171 kts | 296° |
| 2026-04-22 20:52 | 52.21798 | -1.22985 | 8075 ft | 171 kts | 296° |
| 2026-04-22 20:53 | 52.22361 | -1.24728 | 8073 ft | 171 kts | 296° |
| 2026-04-22 20:53 | 52.22913 | -1.26439 | 8072 ft | 171 kts | 296° |
| 2026-04-22 20:53 | 52.23279 | -1.27574 | 8072 ft | 171 kts | 296° |
| 2026-04-22 20:53 | 52.23831 | -1.29287 | 8072 ft | 171 kts | 296° |
| 2026-04-22 20:54 | 52.24383 | -1.30997 | 8073 ft | 170 kts | 296° |
| 2026-04-22 20:54 | 52.24934 | -1.32712 | 8074 ft | 171 kts | 296° |
| 2026-04-22 20:54 | 52.25487 | -1.34429 | 8074 ft | 171 kts | 296° |
| 2026-04-22 20:54 | 52.26039 | -1.36149 | 8074 ft | 171 kts | 296° |
| 2026-04-22 20:55 | 52.26593 | -1.37872 | 8074 ft | 171 kts | 296° |
| 2026-04-22 20:55 | 52.27146 | -1.39593 | 8074 ft | 171 kts | 296° |
| 2026-04-22 20:55 | 52.27699 | -1.41318 | 8070 ft | 171 kts | 296° |
| 2026-04-22 20:55 | 52.28248 | -1.43030 | 8073 ft | 170 kts | 296° |
| 2026-04-22 20:56 | 52.28790 | -1.44723 | 8068 ft | 170 kts | 296° |
| 2026-04-22 20:56 | 52.29340 | -1.46438 | 8068 ft | 170 kts | 296° |
| 2026-04-22 20:56 | 52.29888 | -1.48152 | 8064 ft | 170 kts | 296° |
| 2026-04-22 20:56 | 52.30434 | -1.49860 | 8069 ft | 170 kts | 296° |
| 2026-04-22 20:57 | 52.30983 | -1.51579 | 8067 ft | 171 kts | 296° |
| 2026-04-22 20:57 | 52.31532 | -1.53300 | 8064 ft | 171 kts | 295° |
| 2026-04-22 20:57 | 52.32080 | -1.55018 | 8061 ft | 171 kts | 296° |
| 2026-04-22 20:57 | 52.32629 | -1.56740 | 8022 ft | 171 kts | 296° |
| 2026-04-22 20:58 | 52.33174 | -1.58447 | 8022 ft | 171 kts | 296° |
| 2026-04-22 20:58 | 52.33729 | -1.60192 | 8022 ft | 171 kts | 296° |
| 2026-04-22 20:58 | 52.34279 | -1.61920 | 7998 ft | 172 kts | 296° |
| 2026-04-22 20:58 | 52.34808 | -1.63596 | 7864 ft | 162 kts | 295° |
| 2026-04-22 20:59 | 52.35304 | -1.65190 | 7716 ft | 154 kts | 295° |
| 2026-04-22 20:59 | 52.35777 | -1.66736 | 7569 ft | 150 kts | 290° |
| 2026-04-22 20:59 | 52.36180 | -1.68284 | 7433 ft | 147 kts | 291° |
| 2026-04-22 20:59 | 52.36594 | -1.69808 | 7300 ft | 145 kts | 291° |
| 2026-04-22 21:00 | 52.37001 | -1.71315 | 7167 ft | 144 kts | 291° |
| 2026-04-22 21:00 | 52.37402 | -1.72810 | 7045 ft | 143 kts | 291° |
| 2026-04-22 21:00 | 52.37806 | -1.74315 | 6877 ft | 146 kts | 291° |
| 2026-04-22 21:00 | 52.38239 | -1.75924 | 6708 ft | 164 kts | 292° |
| 2026-04-22 21:01 | 52.38727 | -1.77699 | 6544 ft | 177 kts | 292° |
| 2026-04-22 21:01 | 52.39239 | -1.79581 | 6372 ft | 185 kts | 292° |
| 2026-04-22 21:01 | 52.39761 | -1.81533 | 6190 ft | 189 kts | 292° |
| 2026-04-22 21:01 | 52.40292 | -1.83521 | 6001 ft | 192 kts | 292° |
| 2026-04-22 21:02 | 52.40827 | -1.85533 | 5806 ft | 193 kts | 292° |
| 2026-04-22 21:02 | 52.41366 | -1.87559 | 5601 ft | 195 kts | 292° |
| 2026-04-22 21:02 | 52.41908 | -1.89597 | 5403 ft | 195 kts | 292° |
| 2026-04-22 21:02 | 52.42453 | -1.91639 | 5195 ft | 195 kts | 292° |
| 2026-04-22 21:03 | 52.42968 | -1.93701 | 4997 ft | 195 kts | 285° |
| 2026-04-22 21:03 | 52.43277 | -1.95832 | 4768 ft | 196 kts | 279° |
| 2026-04-22 21:03 | 52.43556 | -1.97986 | 4455 ft | 192 kts | 279° |
| 2026-04-22 21:03 | 52.43831 | -2.00124 | 4146 ft | 190 kts | 279° |
| 2026-04-22 21:04 | 52.44110 | -2.02229 | 3841 ft | 189 kts | 279° |
| 2026-04-22 21:04 | 52.44384 | -2.04329 | 3532 ft | 187 kts | 279° |
| 2026-04-22 21:04 | 52.44647 | -2.06420 | 3219 ft | 188 kts | 279° |
| 2026-04-22 21:04 | 52.44901 | -2.08531 | 2897 ft | 184 kts | 279° |
| 2026-04-22 21:05 | 52.45118 | -2.10515 | 2570 ft | 172 kts | 278° |
| 2026-04-22 21:05 | 52.45309 | -2.12415 | 2240 ft | 166 kts | 278° |
| 2026-04-22 21:05 | 52.45483 | -2.14264 | 2010 ft | 157 kts | 278° |
| 2026-04-22 21:05 | 52.45636 | -2.15920 | 2005 ft | 142 kts | 278° |
| 2026-04-22 21:06 | 52.45782 | -2.17468 | 2005 ft | 134 kts | 278° |
| 2026-04-22 21:06 | 52.45916 | -2.18937 | 1997 ft | 126 kts | 278° |
| 2026-04-22 21:06 | 52.46042 | -2.20341 | 1998 ft | 123 kts | 278° |
| 2026-04-22 21:06 | 52.46167 | -2.21721 | 1997 ft | 123 kts | 278° |
| 2026-04-22 21:07 | 52.46292 | -2.23096 | 2002 ft | 120 kts | 278° |
| 2026-04-22 21:07 | 52.46414 | -2.24452 | 2002 ft | 119 kts | 278° |
| 2026-04-22 21:07 | 52.46535 | -2.25798 | 2003 ft | 120 kts | 278° |
| 2026-04-22 21:07 | 52.46721 | -2.27151 | 2014 ft | 124 kts | 291° |
| 2026-04-22 21:08 | 52.46970 | -2.28510 | 2009 ft | 123 kts | 289° |
| 2026-04-22 21:08 | 52.47312 | -2.29758 | 2002 ft | 118 kts | 299° |
| 2026-04-22 21:08 | 52.47710 | -2.30843 | 1999 ft | 106 kts | 327° |
| 2026-04-22 21:08 | 52.48203 | -2.31689 | 1994 ft | 100 kts | 322° |
| 2026-04-22 21:09 | 52.48670 | -2.32522 | 1923 ft | 101 kts | 323° |
| 2026-04-22 21:09 | 52.49132 | -2.33338 | 1887 ft | 97 kts | 322° |
| 2026-04-22 21:09 | 52.49599 | -2.34150 | 1832 ft | 95 kts | 322° |
| 2026-04-22 21:09 | 52.50055 | -2.34949 | 1740 ft | 98 kts | 323° |
| 2026-04-22 21:10 | 52.50517 | -2.35751 | 1683 ft | 98 kts | 323° |
| 2026-04-22 21:10 | 52.51028 | -2.36611 | 1447 ft | 115 kts | 333° |
| 2026-04-22 21:10 | 52.51665 | -2.36810 | 1425 ft | 76 kts | 47° |
| 2026-04-22 21:10 | 52.51985 | -2.36098 | 1370 ft | 87 kts | 63° |
| 2026-04-22 21:11 | 52.52278 | -2.35165 | 1252 ft | 80 kts | 80° |
| 2026-04-22 21:11 | 52.52316 | -2.34349 | 1074 ft | 64 kts | 92° |
| 2026-04-22 21:11 | 52.52274 | -2.33651 | 875 ft | 58 kts | 95° |
| 2026-04-22 21:11 | 52.52209 | -2.32866 | 864 ft | 87 kts | 94° |
| 2026-04-22 21:12 | 52.52144 | -2.31887 | 917 ft | 81 kts | 94° |
| 2026-04-22 21:12 | 52.52056 | -2.31003 | 807 ft | 82 kts | 96° |
| 2026-04-22 21:12 | 52.51979 | -2.30077 | 706 ft | 82 kts | 94° |
| 2026-04-22 21:12 | 52.51914 | -2.29244 | 600 ft | 63 kts | 95° |
| 2026-04-22 21:13 | 52.51856 | -2.28518 | 509 ft | 66 kts | 97° |
| 2026-04-22 21:13 | 52.51805 | -2.27838 | 374 ft | 58 kts | 90° |
| 2026-04-22 21:13 | 52.51759 | -2.27197 | 344 ft | 54 kts | 92° |
| 2026-04-22 21:13 | 52.51716 | -2.26651 | 281 ft | 43 kts | 94° |
| 2026-04-22 21:14 | 52.51691 | -2.26430 | 282 ft | 3 kts | 152° |
| 2026-04-22 21:14 | 52.51610 | -2.26364 | 283 ft | 9 kts | 124° |
| 2026-04-22 21:14 | 52.51563 | -2.26292 | 284 ft | 10 kts | 109° |
| 2026-04-22 21:14 | 52.51569 | -2.26275 | 284 ft | 0 kts | 8° |